Time;durP1;ratioP1;P1;durP2;ratioP2;P2;SDS_P1;SDS_P2;PMS_P1;PMS_P2;Temp;Humidity;BMP_temperature;BMP_pressure;BME280_temperature;BME280_humidity;BME280_pressure;Samples;Min_cycle;Max_cycle;Signal;HPM_P1;HPM_P2
2021/08/31 00:02:49;;;;;;;14.50;12.90;;;;;;;14.96;89.82;99772.92;227853;1201;138655;-75
2021/08/31 00:07:51;;;;;;;13.00;11.80;;;;;;;14.93;89.84;99776.95;227453;1201;139146;-75
2021/08/31 00:12:52;;;;;;;13.00;11.70;;;;;;;14.92;89.87;99777.69;227025;1200;140182;-75
2021/08/31 00:17:56;;;;;;;12.30;11.20;;;;;;;14.91;90.01;99780.96;227807;1201;139026;-72
2021/08/31 00:22:58;;;;;;;13.80;12.60;;;;;;;14.93;89.96;99787.52;228004;1200;138576;-75
2021/08/31 00:27:59;;;;;;;13.60;12.30;;;;;;;14.97;89.90;99788.97;227700;1200;139162;-75
2021/08/31 00:33:01;;;;;;;13.10;11.90;;;;;;;14.92;89.92;99786.20;227824;1200;138725;-74
2021/08/31 00:38:03;;;;;;;13.10;12.00;;;;;;;14.87;90.24;99785.61;227887;1200;139143;-75
2021/08/31 00:43:05;;;;;;;12.50;11.20;;;;;;;14.90;90.35;99782.14;226946;1208;140131;-75
2021/08/31 00:48:07;;;;;;;13.10;11.50;;;;;;;14.94;90.13;99778.24;227913;1200;139250;-76
2021/08/31 00:53:09;;;;;;;12.60;11.50;;;;;;;14.97;89.90;99772.34;228525;1200;138824;-76
2021/08/31 00:58:11;;;;;;;11.90;10.70;;;;;;;14.91;89.87;99767.65;229631;1201;138452;-75
2021/08/31 01:03:13;;;;;;;11.80;10.70;;;;;;;14.90;90.05;99767.48;228285;1202;138888;-76
2021/08/31 01:08:14;;;;;;;12.10;11.10;;;;;;;14.91;90.15;99761.64;227902;1208;139119;-74
2021/08/31 01:13:17;;;;;;;12.80;11.60;;;;;;;14.96;90.18;99758.02;227373;1200;138688;-75
2021/08/31 01:18:21;;;;;;;13.30;12.10;;;;;;;14.98;89.99;99759.38;227873;1200;138249;-75
2021/08/31 01:23:25;;;;;;;12.50;11.20;;;;;;;14.94;90.06;99760.05;229315;1202;138982;-76
2021/08/31 01:28:32;;;;;;;11.70;10.50;;;;;;;14.90;90.04;99760.20;231227;1201;139401;-75
2021/08/31 01:33:35;;;;;;;11.10;10.00;;;;;;;14.89;89.78;99763.41;228814;1201;138888;-75
2021/08/31 01:38:36;;;;;;;11.60;10.60;;;;;;;14.92;89.43;99766.67;227561;1203;139732;-74
2021/08/31 01:43:38;;;;;;;12.00;10.80;;;;;;;14.86;89.44;99763.54;227511;1200;138478;-74
2021/08/31 01:48:40;;;;;;;11.60;10.40;;;;;;;14.79;89.47;99765.70;227848;1201;138357;-76
2021/08/31 01:53:42;;;;;;;12.80;11.50;;;;;;;14.76;89.53;99765.71;227309;1201;138957;-78
2021/08/31 01:58:43;;;;;;;15.50;13.90;;;;;;;14.72;89.74;99761.41;227948;1200;139585;-74
2021/08/31 02:03:45;;;;;;;16.40;14.80;;;;;;;14.73;89.39;99760.51;227230;1200;138986;-74
2021/08/31 02:08:47;;;;;;;15.90;14.40;;;;;;;14.75;89.30;99760.40;227966;1201;151145;-76
2021/08/31 02:13:48;;;;;;;16.80;15.00;;;;;;;14.71;89.12;99755.88;227783;1200;138829;-75
2021/08/31 02:18:50;;;;;;;19.30;17.30;;;;;;;14.66;89.40;99753.33;229666;1201;138958;-73
2021/08/31 02:23:52;;;;;;;20.00;17.90;;;;;;;14.67;89.33;99754.09;232519;1200;139555;-75
2021/08/31 02:28:53;;;;;;;22.90;19.90;;;;;;;14.68;89.12;99750.74;228150;1204;138962;-74
2021/08/31 02:33:55;;;;;;;21.30;19.10;;;;;;;14.64;89.28;99752.68;226829;1209;138348;-75
2021/08/31 02:38:57;;;;;;;19.20;16.60;;;;;;;14.64;89.30;99753.58;227013;1208;138157;-72
2021/08/31 02:43:59;;;;;;;13.90;12.60;;;;;;;14.61;89.10;99752.58;226848;1208;139446;-74
2021/08/31 02:49:00;;;;;;;12.20;11.00;;;;;;;14.60;89.06;99747.14;227409;1201;139486;-74
2021/08/31 02:54:02;;;;;;;12.40;11.20;;;;;;;14.59;88.98;99746.30;227002;1200;139110;-75
2021/08/31 02:59:05;;;;;;;13.80;11.00;;;;;;;14.57;89.13;99747.11;227770;1201;138545;-74
2021/08/31 03:04:06;;;;;;;11.40;10.30;;;;;;;14.55;89.23;99745.88;227019;1208;138205;-74
2021/08/31 03:09:08;;;;;;;10.40;9.30;;;;;;;14.51;89.27;99741.51;226968;1208;159824;-76
2021/08/31 03:14:10;;;;;;;10.20;9.20;;;;;;;14.53;89.32;99746.38;227953;1201;139344;-75
2021/08/31 03:19:13;;;;;;;10.70;9.70;;;;;;;14.55;89.17;99740.05;227872;1200;139161;-74
2021/08/31 03:24:16;;;;;;;12.80;10.70;;;;;;;14.58;89.01;99730.83;227119;1208;138472;-75
2021/08/31 03:29:18;;;;;;;12.20;11.00;;;;;;;14.53;88.87;99729.15;227769;1200;142099;-76
2021/08/31 03:34:19;;;;;;;11.60;10.40;;;;;;;14.45;89.31;99726.34;227818;1200;138819;-79
2021/08/31 03:39:21;;;;;;;12.10;10.60;;;;;;;14.44;89.33;99730.48;227991;1208;138701;-77
2021/08/31 03:44:23;;;;;;;11.70;10.60;;;;;;;14.44;89.40;99732.48;228072;1200;138915;-74
2021/08/31 03:49:24;;;;;;;11.50;10.30;;;;;;;14.45;89.22;99733.05;227965;1200;138592;-74
2021/08/31 03:54:26;;;;;;;13.00;11.70;;;;;;;14.39;89.38;99738.86;227970;1201;138912;-76
2021/08/31 03:59:28;;;;;;;12.70;11.30;;;;;;;14.38;89.57;99746.05;227956;1201;139623;-78
2021/08/31 04:04:30;;;;;;;13.30;11.90;;;;;;;14.43;89.49;99742.44;227624;1201;140327;-74
2021/08/31 04:09:32;;;;;;;12.70;11.50;;;;;;;14.38;89.03;99748.46;227632;1200;138541;-74
2021/08/31 04:14:33;;;;;;;12.90;11.60;;;;;;;14.39;89.08;99755.63;226916;1209;138783;-74
2021/08/31 04:19:35;;;;;;;13.40;12.00;;;;;;;14.40;89.12;99763.30;227863;1201;138492;-74
2021/08/31 04:24:37;;;;;;;13.10;11.80;;;;;;;14.40;89.34;99772.70;227359;1202;139285;-74
2021/08/31 04:29:39;;;;;;;17.80;12.30;;;;;;;14.45;89.09;99769.98;227924;1200;139016;-75
2021/08/31 04:34:41;;;;;;;13.00;11.70;;;;;;;14.46;89.08;99775.35;227735;1208;138804;-75
2021/08/31 04:39:42;;;;;;;15.60;12.30;;;;;;;14.49;89.04;99788.61;228132;1208;139158;-75
2021/08/31 04:44:44;;;;;;;13.10;11.80;;;;;;;14.47;89.22;99789.40;228074;1200;139122;-77
2021/08/31 04:49:46;;;;;;;12.80;11.60;;;;;;;14.43;89.41;99790.34;227273;1204;139392;-71
2021/08/31 04:54:48;;;;;;;12.20;11.10;;;;;;;14.40;89.59;99793.84;227930;1203;139932;-75
2021/08/31 04:59:50;;;;;;;11.70;10.50;;;;;;;14.46;89.57;99791.30;227219;1201;140621;-73
2021/08/31 05:04:52;;;;;;;11.30;10.20;;;;;;;14.49;89.01;99786.89;227353;1201;139207;-73
2021/08/31 05:09:53;;;;;;;12.10;10.90;;;;;;;14.47;88.95;99781.63;227165;1208;138335;-75
2021/08/31 05:14:55;;;;;;;12.00;10.30;;;;;;;14.41;89.10;99780.91;228029;1201;139023;-74
2021/08/31 05:19:58;;;;;;;11.90;10.60;;;;;;;14.43;89.00;99775.75;227067;1200;140044;-74
2021/08/31 05:25:03;;;;;;;12.60;11.30;;;;;;;14.46;88.84;99776.74;228136;1200;138919;-74
2021/08/31 05:30:05;;;;;;;13.00;11.80;;;;;;;14.45;88.41;99774.48;227886;1200;138045;-75
2021/08/31 05:35:08;;;;;;;13.20;11.90;;;;;;;14.42;88.36;99777.91;227950;1201;138297;-75
2021/08/31 05:40:10;;;;;;;13.20;11.90;;;;;;;14.37;88.37;99777.75;228812;1201;140334;-75
2021/08/31 05:45:12;;;;;;;11.90;10.80;;;;;;;14.45;88.50;99788.06;230914;1200;139544;-75
2021/08/31 05:50:13;;;;;;;11.90;10.80;;;;;;;14.49;88.09;99788.09;227878;1200;138772;-75
2021/08/31 05:55:15;;;;;;;11.50;10.30;;;;;;;14.48;88.20;99788.02;227818;1209;138604;-75
2021/08/31 06:00:17;;;;;;;11.80;10.60;;;;;;;14.40;88.56;99779.77;227872;1201;138164;-74
2021/08/31 06:05:19;;;;;;;11.50;9.60;;;;;;;14.41;88.28;99776.70;227937;1200;138933;-74
2021/08/31 06:10:21;;;;;;;11.40;10.40;;;;;;;14.37;87.48;99765.51;227859;1200;139047;-78
2021/08/31 06:15:24;;;;;;;10.90;9.90;;;;;;;14.38;86.92;99768.22;227794;1209;138887;-75
2021/08/31 06:20:25;;;;;;;12.20;9.60;;;;;;;14.43;86.86;99770.14;227955;1201;138167;-78
2021/08/31 06:25:27;;;;;;;10.20;9.20;;;;;;;14.38;87.24;99785.06;227944;1200;138104;-77
2021/08/31 06:30:29;;;;;;;9.90;8.90;;;;;;;14.49;87.44;99788.48;227908;1201;139904;-75
2021/08/31 06:35:30;;;;;;;9.00;8.20;;;;;;;14.60;86.59;99781.92;228421;1208;139571;-75
2021/08/31 06:40:32;;;;;;;10.10;9.20;;;;;;;14.71;85.93;99783.45;231220;1201;138581;-76
2021/08/31 06:45:34;;;;;;;9.70;8.90;;;;;;;14.76;85.82;99779.17;228472;1201;138365;-77
2021/08/31 06:50:36;;;;;;;9.30;8.30;;;;;;;14.70;85.92;99789.34;227854;1201;138596;-75
2021/08/31 06:55:41;;;;;;;8.50;7.70;;;;;;;14.66;86.40;99789.73;227498;1200;138975;-75
2021/08/31 07:00:43;;;;;;;9.40;8.60;;;;;;;14.61;87.04;99787.19;227940;1200;138411;-74
2021/08/31 07:05:44;;;;;;;10.10;9.10;;;;;;;14.63;87.17;99791.17;226918;1209;138582;-74
2021/08/31 07:10:46;;;;;;;9.60;8.80;;;;;;;14.73;87.13;99791.64;227797;1208;138076;-75
2021/08/31 07:15:48;;;;;;;12.00;9.60;;;;;;;14.82;86.89;99783.73;227063;1201;138677;-76
2021/08/31 07:20:50;;;;;;;9.80;8.80;;;;;;;14.91;86.26;99783.99;227949;1201;139094;-75
2021/08/31 07:25:51;;;;;;;8.60;7.80;;;;;;;15.10;85.56;99781.30;227826;1209;138943;-76
2021/08/31 07:30:53;;;;;;;9.20;8.40;;;;;;;15.24;84.72;99790.05;228014;1200;138356;-75
2021/08/31 07:35:55;;;;;;;9.70;8.60;;;;;;;15.22;83.79;99798.55;228571;1209;138307;-75
2021/08/31 07:40:56;;;;;;;8.90;7.40;;;;;;;15.19;83.96;99793.95;227970;1200;138051;-75
2021/08/31 07:45:58;;;;;;;6.60;5.90;;;;;;;15.17;84.24;99798.45;227993;1209;138818;-77
2021/08/31 07:51:00;;;;;;;10.90;9.80;;;;;;;15.24;83.28;99796.15;228035;1201;138896;-76
2021/08/31 07:56:03;;;;;;;8.40;7.60;;;;;;;15.32;83.15;99790.78;227722;1209;137944;-75
2021/08/31 08:01:05;;;;;;;6.70;6.10;;;;;;;15.42;83.03;99791.35;227875;1200;137967;-77
2021/08/31 08:06:06;;;;;;;6.80;6.30;;;;;;;15.46;82.90;99794.85;227926;1209;138993;-77
2021/08/31 08:11:08;;;;;;;6.90;6.30;;;;;;;15.44;82.01;99802.91;227629;1201;138936;-75
2021/08/31 08:16:10;;;;;;;7.50;6.80;;;;;;;15.47;81.32;99810.05;227904;1210;137937;-75
2021/08/31 08:21:11;;;;;;;7.80;7.10;;;;;;;15.44;81.42;99807.70;227903;1200;138058;-75
2021/08/31 08:26:14;;;;;;;8.50;7.80;;;;;;;15.44;81.40;99806.32;227933;1208;138652;-74
2021/08/31 08:31:16;;;;;;;7.60;7.00;;;;;;;15.51;80.96;99808.07;227895;1208;139489;-75
2021/08/31 08:36:18;;;;;;;8.10;7.30;;;;;;;15.66;80.31;99809.73;227777;1209;138043;-75
2021/08/31 08:41:20;;;;;;;8.40;7.50;;;;;;;15.71;79.73;99804.19;227893;1201;138027;-76
2021/08/31 08:46:21;;;;;;;7.30;6.60;;;;;;;15.74;79.80;99804.56;227903;1209;138569;-74
2021/08/31 08:51:24;;;;;;;7.90;7.10;;;;;;;15.86;79.90;99793.20;227478;1209;138934;-76
2021/08/31 08:56:27;;;;;;;6.90;6.30;;;;;;;15.94;79.43;99793.20;227969;1201;138298;-75
2021/08/31 09:01:42;;;;;;;6.30;5.80;;;;;;;15.94;78.20;99794.16;228236;1201;138439;-75
2021/08/31 09:06:45;;;;;;;6.50;6.00;;;;;;;15.94;77.27;99797.27;229755;1202;139247;-74
2021/08/31 09:11:49;;;;;;;7.20;6.30;;;;;;;16.08;75.43;99800.31;227819;1200;138678;-76
2021/08/31 09:16:57;;;;;;;7.20;6.40;;;;;;;16.14;75.00;99800.83;227888;1209;138163;-74
2021/08/31 09:22:15;;;;;;;5.60;5.20;;;;;;;16.19;75.24;99799.89;227270;1208;137980;-75
2021/08/31 09:27:34;;;;;;;5.50;5.00;;;;;;;16.20;74.79;99813.46;228117;1201;139324;-76
2021/08/31 09:32:36;;;;;;;5.40;5.00;;;;;;;16.26;74.49;99812.94;227909;1202;138600;-77
2021/08/31 09:37:38;;;;;;;7.20;6.60;;;;;;;16.38;75.05;99817.33;227724;1206;137921;-74
2021/08/31 09:42:56;;;;;;;9.00;8.20;;;;;;;16.36;74.63;99814.41;227982;1202;138347;-75
2021/08/31 09:48:00;;;;;;;7.50;6.90;;;;;;;16.38;73.73;99822.30;227902;1209;138391;-74
2021/08/31 09:53:03;;;;;;;6.60;5.70;;;;;;;16.44;74.33;99832.64;228489;1201;138627;-76
2021/08/31 09:58:15;;;;;;;5.80;5.40;;;;;;;16.68;73.86;99840.17;228220;1208;138151;-75
2021/08/31 10:03:17;;;;;;;6.00;5.50;;;;;;;16.50;73.28;99837.27;227810;1201;138020;-76
2021/08/31 10:08:20;;;;;;;6.00;5.40;;;;;;;16.51;74.96;99835.00;227805;1201;139080;-76
2021/08/31 10:13:23;;;;;;;4.80;4.30;;;;;;;16.65;74.71;99831.97;227779;1202;138486;-76
2021/08/31 10:18:27;;;;;;;5.20;4.80;;;;;;;16.77;73.21;99827.52;227887;1208;138085;-75
2021/08/31 10:23:32;;;;;;;8.30;6.00;;;;;;;16.80;73.19;99827.08;227126;1201;138869;-74
2021/08/31 10:28:34;;;;;;;5.80;4.70;;;;;;;16.70;73.51;99824.14;227928;1202;138656;-75
2021/08/31 10:33:38;;;;;;;7.40;6.20;;;;;;;16.90;73.41;99820.92;227884;1202;138653;-75
2021/08/31 10:38:49;;;;;;;5.80;5.00;;;;;;;17.43;72.87;99817.08;228022;1202;138146;-75
2021/08/31 10:43:53;;;;;;;5.50;4.50;;;;;;;17.45;71.62;99825.05;227872;1208;138562;-75
2021/08/31 10:49:02;;;;;;;5.20;4.80;;;;;;;17.56;71.63;99824.13;228390;1202;138189;-76
2021/08/31 10:54:04;;;;;;;4.70;3.90;;;;;;;17.28;70.93;99818.58;227211;1208;138356;-73
2021/08/31 10:59:05;;;;;;;4.40;4.00;;;;;;;17.08;72.32;99826.07;227374;1208;138974;-75
2021/08/31 11:04:30;;;;;;;4.70;4.30;;;;;;;17.35;72.97;99827.71;227998;1208;139333;-74
2021/08/31 11:09:33;;;;;;;5.20;4.40;;;;;;;17.62;71.62;99822.75;228208;1201;139194;-75
2021/08/31 11:14:52;;;;;;;6.40;4.50;;;;;;;18.00;70.72;99826.83;227990;1201;138722;-75
2021/08/31 11:20:10;;;;;;;3.50;3.20;;;;;;;18.36;70.58;99820.75;228148;1209;139749;-76
2021/08/31 11:25:12;;;;;;;4.30;3.90;;;;;;;19.11;68.08;99819.27;227996;1202;138828;-74
2021/08/31 11:30:14;;;;;;;4.00;3.60;;;;;;;19.19;65.80;99818.34;227965;1206;138240;-76
2021/08/31 11:35:16;;;;;;;3.60;3.20;;;;;;;18.25;66.26;99824.08;227986;1201;138525;-74
2021/08/31 11:40:26;;;;;;;3.30;3.10;;;;;;;18.05;67.92;99824.11;228262;1206;138417;-75
2021/08/31 11:45:33;;;;;;;4.20;3.40;;;;;;;18.25;66.90;99815.95;228309;1209;138910;-75
2021/08/31 11:50:37;;;;;;;2.70;2.50;;;;;;;18.22;68.27;99810.86;227833;1201;139448;-75
2021/08/31 11:55:38;;;;;;;2.90;2.70;;;;;;;18.18;67.49;99808.13;227863;1209;138839;-75
2021/08/31 12:00:42;;;;;;;2.80;2.60;;;;;;;19.01;65.36;99798.59;227946;1201;138100;-75
2021/08/31 12:05:45;;;;;;;2.30;2.20;;;;;;;19.05;64.96;99797.65;227911;1201;137774;-76
2021/08/31 12:10:47;;;;;;;2.50;2.30;;;;;;;18.69;64.16;99799.70;227951;1200;137801;-75
2021/08/31 12:15:53;;;;;;;2.40;2.30;;;;;;;18.57;65.88;99794.13;227923;1201;137927;-78
2021/08/31 12:21:20;;;;;;;3.40;2.20;;;;;;;19.26;63.31;99798.48;228020;1201;138687;-75
2021/08/31 12:26:35;;;;;;;2.70;2.00;;;;;;;18.86;63.38;99790.73;230929;1202;138523;-75
2021/08/31 12:31:38;;;;;;;2.60;2.50;;;;;;;18.61;65.99;99793.13;232363;1201;138410;-76
2021/08/31 12:36:40;;;;;;;3.40;2.40;;;;;;;18.66;66.46;99801.45;228278;1202;138829;-75
2021/08/31 12:41:43;;;;;;;2.50;2.30;;;;;;;18.58;66.22;99810.83;228003;1202;138286;-75
2021/08/31 12:46:46;;;;;;;2.70;2.50;;;;;;;18.53;67.35;99809.30;228056;1202;138253;-77
2021/08/31 12:51:53;;;;;;;3.30;3.10;;;;;;;18.53;65.28;99806.75;227894;1208;138948;-79
2021/08/31 12:57:00;;;;;;;3.40;3.10;;;;;;;18.48;67.16;99821.23;227648;1208;138475;-75
2021/08/31 13:02:05;;;;;;;4.20;2.70;;;;;;;18.44;67.05;99811.76;228006;1201;137884;-75
2021/08/31 13:07:12;;;;;;;4.50;2.90;;;;;;;18.54;67.23;99813.03;228241;1202;137910;-75
2021/08/31 13:12:16;;;;;;;2.90;2.70;;;;;;;18.35;66.31;99816.48;228075;1201;138426;-76
2021/08/31 13:17:18;;;;;;;2.40;2.20;;;;;;;18.38;67.44;99819.42;227939;1208;137716;-75
2021/08/31 13:22:20;;;;;;;2.50;2.30;;;;;;;18.62;66.09;99816.87;227973;1201;138971;-76
2021/08/31 13:27:22;;;;;;;2.80;2.60;;;;;;;18.73;65.67;99819.48;227953;1202;139227;-75
2021/08/31 13:32:23;;;;;;;1.90;1.80;;;;;;;18.56;66.54;99818.33;228007;1202;138276;-76
2021/08/31 13:37:25;;;;;;;2.60;2.30;;;;;;;18.37;67.91;99824.95;227974;1201;138347;-76
2021/08/31 13:42:27;;;;;;;2.10;2.00;;;;;;;18.17;67.84;99819.00;227953;1201;137734;-75
2021/08/31 13:47:28;;;;;;;3.70;3.10;;;;;;;18.14;68.29;99821.63;227958;1201;137795;-75
2021/08/31 13:52:30;;;;;;;2.60;2.40;;;;;;;18.15;68.79;99826.10;227987;1201;138527;-77
2021/08/31 13:57:32;;;;;;;3.30;2.20;;;;;;;18.20;68.99;99824.95;228001;1206;138746;-76
2021/08/31 14:02:33;;;;;;;2.20;2.10;;;;;;;18.27;68.92;99817.04;228087;1202;138171;-78
2021/08/31 14:07:35;;;;;;;3.10;2.30;;;;;;;18.28;68.78;99816.62;228760;1202;138107;-76
2021/08/31 14:12:37;;;;;;;4.70;2.60;;;;;;;18.20;69.10;99822.27;227968;1201;138381;-76
2021/08/31 14:17:38;;;;;;;12.40;2.70;;;;;;;18.10;69.35;99832.42;227923;1201;137811;-77
2021/08/31 14:22:40;;;;;;;2.90;2.10;;;;;;;18.11;69.51;99830.62;227983;1206;138786;-76
2021/08/31 14:27:42;;;;;;;2.60;2.40;;;;;;;18.23;70.22;99827.27;227945;1202;138984;-75
2021/08/31 14:32:44;;;;;;;3.30;2.60;;;;;;;18.21;70.19;99834.61;227874;1201;138413;-75
2021/08/31 14:37:46;;;;;;;3.30;2.20;;;;;;;18.11;70.71;99835.34;228003;1201;141405;-75
2021/08/31 14:42:48;;;;;;;3.10;2.40;;;;;;;18.02;70.85;99829.73;228031;1202;138502;-75
2021/08/31 14:47:49;;;;;;;2.70;2.50;;;;;;;17.99;71.69;99839.73;227866;1201;138334;-75
2021/08/31 14:52:51;;;;;;;4.00;2.30;;;;;;;18.08;70.89;99845.02;228069;1201;139172;-75
2021/08/31 14:57:53;;;;;;;3.60;2.30;;;;;;;18.18;70.27;99846.81;228017;1201;138128;-75
2021/08/31 15:02:55;;;;;;;2.70;2.50;;;;;;;18.27;70.42;99849.17;228080;1208;137819;-74
2021/08/31 15:07:56;;;;;;;3.00;2.40;;;;;;;18.27;71.00;99852.23;227956;1201;138190;-75
2021/08/31 15:12:58;;;;;;;2.90;2.40;;;;;;;18.13;70.49;99856.94;227903;1201;138213;-75
2021/08/31 15:18:00;;;;;;;2.80;2.60;;;;;;;18.05;70.78;99857.59;228009;1201;139432;-75
2021/08/31 15:23:02;;;;;;;2.80;2.60;;;;;;;18.08;70.98;99854.00;227874;1201;139158;-75
2021/08/31 15:28:04;;;;;;;2.60;2.40;;;;;;;18.12;71.74;99861.51;228145;1201;139131;-76
2021/08/31 15:33:06;;;;;;;3.10;2.90;;;;;;;18.04;72.23;99864.71;227918;1200;138272;-75
2021/08/31 15:38:08;;;;;;;3.40;3.10;;;;;;;17.90;73.23;99865.16;227866;1201;138926;-74
2021/08/31 15:43:09;;;;;;;4.60;3.80;;;;;;;17.86;74.12;99872.55;227934;1208;138969;-75
2021/08/31 15:48:11;;;;;;;4.00;3.70;;;;;;;17.84;74.22;99867.09;227956;1201;138708;-75
2021/08/31 15:53:14;;;;;;;3.90;3.60;;;;;;;17.84;74.31;99872.59;229494;1200;137799;-75
2021/08/31 15:58:16;;;;;;;4.10;2.80;;;;;;;17.78;74.97;99880.64;229171;1201;138769;-74
2021/08/31 16:03:18;;;;;;;2.80;1.80;;;;;;;17.58;76.33;99888.13;227958;1200;137924;-74
2021/08/31 16:08:19;;;;;;;2.70;1.60;;;;;;;17.44;77.57;99893.73;227077;1208;139591;-74
2021/08/31 16:13:21;;;;;;;4.70;1.50;;;;;;;17.43;78.43;99899.20;227097;1201;138987;-75
2021/08/31 16:18:23;;;;;;;3.90;2.00;;;;;;;17.39;79.48;99914.58;227922;1201;138615;-75
2021/08/31 16:23:25;;;;;;;2.10;1.20;;;;;;;17.25;80.70;99922.77;227898;1201;138316;-75
2021/08/31 16:28:27;;;;;;;2.20;1.40;;;;;;;16.99;81.80;99925.77;227906;1201;137905;-77
2021/08/31 16:33:31;;;;;;;6.00;3.90;;;;;;;16.89;82.79;99930.41;227490;1208;138903;-73
2021/08/31 16:38:35;;;;;;;1.80;1.70;;;;;;;16.86;82.90;99934.97;227673;1201;138578;-71
2021/08/31 16:43:38;;;;;;;2.60;1.50;;;;;;;16.76;83.29;99934.76;227764;1201;138809;-76
2021/08/31 16:48:39;;;;;;;1.60;1.50;;;;;;;16.64;83.45;99942.48;227958;1200;138675;-75
2021/08/31 16:53:42;;;;;;;3.20;1.60;;;;;;;16.58;83.77;99948.50;227910;1200;138702;-75
2021/08/31 16:58:44;;;;;;;1.90;1.40;;;;;;;16.60;83.32;99956.96;227365;1201;139483;-74
2021/08/31 17:03:47;;;;;;;2.40;1.60;;;;;;;16.52;83.81;99959.05;228076;1200;139002;-75
2021/08/31 17:08:48;;;;;;;1.50;1.00;;;;;;;16.59;83.32;99960.57;228063;1201;139406;-75
2021/08/31 17:13:50;;;;;;;1.00;1.00;;;;;;;16.52;83.31;99963.48;227258;1201;138982;-78
2021/08/31 17:18:52;;;;;;;1.30;0.80;;;;;;;16.44;83.71;99971.17;227832;1200;139320;-76
2021/08/31 17:23:54;;;;;;;2.90;1.10;;;;;;;16.42;83.56;99975.14;227892;1200;139621;-75
2021/08/31 17:28:56;;;;;;;1.10;1.00;;;;;;;16.49;83.63;99977.61;227958;1200;139047;-76
2021/08/31 17:33:58;;;;;;;0.90;0.90;;;;;;;16.47;83.60;99984.22;228052;1200;139000;-75
2021/08/31 17:39:00;;;;;;;1.60;1.50;;;;;;;16.39;83.87;99991.64;227252;1202;138223;-75
2021/08/31 17:44:01;;;;;;;2.90;2.20;;;;;;;16.34;84.00;99994.63;227871;1208;138785;-75
2021/08/31 17:49:04;;;;;;;1.50;1.40;;;;;;;16.34;83.83;99999.28;227109;1201;138745;-74
2021/08/31 17:54:12;;;;;;;0.80;0.80;;;;;;;16.35;83.72;100011.07;228050;1200;138597;-75
2021/08/31 17:59:14;;;;;;;1.20;1.10;;;;;;;16.33;83.74;100017.50;228006;1208;138701;-74
2021/08/31 18:04:16;;;;;;;1.00;0.90;;;;;;;16.27;83.95;100022.27;227978;1201;138613;-76
2021/08/31 18:09:19;;;;;;;1.40;1.10;;;;;;;16.18;84.22;100021.96;228101;1208;139151;-75
2021/08/31 18:14:22;;;;;;;2.20;1.00;;;;;;;16.20;84.00;100030.63;227878;1202;139426;-76
2021/08/31 18:19:24;;;;;;;2.10;1.90;;;;;;;16.21;83.84;100028.66;229765;1201;138905;-77
2021/08/31 18:24:26;;;;;;;1.50;1.40;;;;;;;16.12;84.37;100038.41;230076;1208;138144;-77
2021/08/31 18:29:28;;;;;;;1.60;1.50;;;;;;;16.08;84.61;100038.77;227938;1201;138912;-76
2021/08/31 18:34:29;;;;;;;1.80;1.20;;;;;;;16.07;84.19;100043.72;230556;1200;139204;-75
2021/08/31 18:39:31;;;;;;;1.10;1.00;;;;;;;16.05;84.06;100045.86;233095;1202;139083;-75
2021/08/31 18:44:34;;;;;;;2.40;1.40;;;;;;;16.08;83.98;100048.66;228882;1201;138884;-77
2021/08/31 18:49:36;;;;;;;1.60;1.50;;;;;;;15.99;84.14;100050.20;227894;1202;138394;-77
2021/08/31 18:54:37;;;;;;;1.30;1.20;;;;;;;15.97;84.22;100057.83;228014;1201;138736;-77
2021/08/31 18:59:39;;;;;;;1.80;1.30;;;;;;;15.94;84.33;100054.23;227942;1200;139251;-74
2021/08/31 19:04:40;;;;;;;1.70;1.00;;;;;;;15.92;84.28;100054.84;227918;1208;139473;-72
2021/08/31 19:09:42;;;;;;;0.90;0.80;;;;;;;15.92;84.41;100056.19;226925;1208;139593;-75
2021/08/31 19:14:44;;;;;;;1.90;1.10;;;;;;;15.93;84.24;100059.48;231125;1200;138491;-74
2021/08/31 19:19:46;;;;;;;1.30;1.20;;;;;;;15.84;84.70;100063.61;228783;1200;138997;-77
2021/08/31 19:24:47;;;;;;;1.80;1.30;;;;;;;15.77;84.71;100068.98;227878;1200;138771;-76
2021/08/31 19:29:49;;;;;;;1.70;1.50;;;;;;;15.80;84.98;100070.27;227923;1200;140241;-76
2021/08/31 19:34:51;;;;;;;1.70;1.50;;;;;;;15.80;84.95;100069.52;228060;1200;138423;-76
2021/08/31 19:39:52;;;;;;;5.40;1.80;;;;;;;15.81;84.57;100071.67;228028;1200;138293;-78
2021/08/31 19:44:54;;;;;;;2.40;1.40;;;;;;;15.78;84.72;100076.32;227984;1202;139244;-75
2021/08/31 19:49:56;;;;;;;2.00;1.20;;;;;;;15.76;85.01;100082.61;227983;1207;139715;-76
2021/08/31 19:54:59;;;;;;;1.70;1.40;;;;;;;15.73;85.14;100082.27;227863;1208;139823;-75
2021/08/31 20:00:01;;;;;;;1.20;1.10;;;;;;;15.74;84.60;100080.89;227964;1200;138683;-74
2021/08/31 20:05:04;;;;;;;1.90;1.30;;;;;;;15.67;84.92;100083.98;227478;1200;138321;-75
2021/08/31 20:10:07;;;;;;;1.90;1.30;;;;;;;15.61;85.27;100088.62;228047;1203;138699;-76
2021/08/31 20:15:09;;;;;;;2.10;1.20;;;;;;;15.57;85.21;100094.05;227957;1200;138742;-75
2021/08/31 20:20:11;;;;;;;2.90;1.50;;;;;;;15.59;84.70;100094.30;227933;1201;139773;-76
2021/08/31 20:25:13;;;;;;;1.20;1.10;;;;;;;15.58;84.38;100104.73;227948;1202;138568;-75
2021/08/31 20:30:15;;;;;;;1.50;1.40;;;;;;;15.54;84.57;100109.21;228003;1201;138129;-75
2021/08/31 20:35:17;;;;;;;1.90;1.50;;;;;;;15.51;84.53;100110.46;227834;1200;138508;-75
2021/08/31 20:40:19;;;;;;;1.50;1.10;;;;;;;15.47;84.51;100116.08;227063;1209;139377;-77
2021/08/31 20:45:20;;;;;;;2.10;1.90;;;;;;;15.45;84.37;100118.98;227197;1200;139044;-76
2021/08/31 20:50:23;;;;;;;2.70;2.10;;;;;;;15.49;84.07;100123.15;227241;1200;139323;-76
2021/08/31 20:55:24;;;;;;;1.60;1.50;;;;;;;15.53;83.86;100128.14;228061;1201;138541;-76
2021/08/31 21:00:26;;;;;;;2.60;1.50;;;;;;;15.48;83.85;100129.68;227565;1200;139637;-75
2021/08/31 21:05:28;;;;;;;1.90;1.60;;;;;;;15.36;84.29;100141.35;227981;1208;139333;-75
2021/08/31 21:10:30;;;;;;;1.70;1.60;;;;;;;15.40;84.35;100140.08;227925;1202;139103;-77
2021/08/31 21:15:31;;;;;;;2.20;2.00;;;;;;;15.42;84.13;100140.37;228132;1200;139351;-77
2021/08/31 21:20:33;;;;;;;2.80;2.20;;;;;;;15.32;84.62;100145.04;227392;1208;138252;-74
2021/08/31 21:25:35;;;;;;;2.40;2.20;;;;;;;15.26;84.63;100148.87;227016;1209;138232;-75
2021/08/31 21:30:36;;;;;;;2.00;1.80;;;;;;;15.22;84.60;100149.70;227937;1200;139107;-75
2021/08/31 21:35:38;;;;;;;2.20;2.10;;;;;;;15.21;84.67;100155.33;227945;1200;138802;-75
2021/08/31 21:40:40;;;;;;;2.30;1.90;;;;;;;15.26;84.75;100161.77;227949;1200;138435;-75
2021/08/31 21:45:42;;;;;;;2.60;2.00;;;;;;;15.31;84.48;100165.88;228051;1205;138349;-75
2021/08/31 21:50:43;;;;;;;2.80;2.60;;;;;;;15.27;84.56;100177.02;227565;1200;138030;-75
2021/08/31 21:55:45;;;;;;;5.10;2.20;;;;;;;15.24;84.73;100186.54;227165;1200;138803;-76
2021/08/31 22:00:47;;;;;;;2.30;2.10;;;;;;;15.24;84.78;100182.31;228287;1200;138648;-76
2021/08/31 22:05:48;;;;;;;2.90;2.10;;;;;;;15.27;84.70;100182.88;227196;1209;138751;-76
2021/08/31 22:10:50;;;;;;;3.30;2.80;;;;;;;15.26;84.64;100182.12;227979;1200;138427;-75
2021/08/31 22:15:52;;;;;;;3.20;2.30;;;;;;;15.16;84.80;100184.89;227191;1201;138544;-75
2021/08/31 22:20:54;;;;;;;2.50;2.20;;;;;;;15.12;85.01;100190.05;227472;1208;139328;-74
2021/08/31 22:25:56;;;;;;;3.90;2.20;;;;;;;15.13;85.06;100189.31;227492;1204;141673;-76
2021/08/31 22:30:57;;;;;;;4.30;2.70;;;;;;;15.19;84.73;100192.53;227913;1200;138582;-75
2021/08/31 22:35:59;;;;;;;4.00;2.50;;;;;;;15.19;84.77;100197.28;231541;1200;138419;-75
2021/08/31 22:41:01;;;;;;;2.80;2.60;;;;;;;15.15;84.78;100201.74;228262;1200;138282;-77
2021/08/31 22:46:02;;;;;;;2.90;2.30;;;;;;;15.14;85.10;100207.98;228012;1200;138788;-75
2021/08/31 22:51:04;;;;;;;2.50;2.30;;;;;;;15.16;84.87;100212.53;227912;1201;138788;-75
2021/08/31 22:56:06;;;;;;;2.50;2.30;;;;;;;15.23;84.85;100207.28;227377;1201;140681;-76
2021/08/31 23:01:08;;;;;;;3.90;3.40;;;;;;;15.20;84.84;100204.27;227053;1203;138950;-74